sensor_id;sensor_type;location;lat;lon;timestamp;temperature;humidity
15949;DHT22;14848;50.954;6.642;2023-02-01T00:01:59;6.30;99.90
15949;DHT22;14848;50.954;6.642;2023-02-01T00:04:25;6.30;99.90
15949;DHT22;14848;50.954;6.642;2023-02-01T00:06:51;6.30;99.90
15949;DHT22;14848;50.954;6.642;2023-02-01T00:09:17;6.30;99.90
15949;DHT22;14848;50.954;6.642;2023-02-01T00:11:43;6.30;99.90
15949;DHT22;14848;50.954;6.642;2023-02-01T00:14:09;6.20;99.90
15949;DHT22;14848;50.954;6.642;2023-02-01T00:16:34;6.20;99.90
15949;DHT22;14848;50.954;6.642;2023-02-01T00:19:07;6.10;99.90
15949;DHT22;14848;50.954;6.642;2023-02-01T00:21:33;6.10;99.90
15949;DHT22;14848;50.954;6.642;2023-02-01T00:23:59;6.10;99.90
15949;DHT22;14848;50.954;6.642;2023-02-01T00:28:56;6.10;99.90
15949;DHT22;14848;50.954;6.642;2023-02-01T00:31:22;6.00;99.90
15949;DHT22;14848;50.954;6.642;2023-02-01T00:33:48;6.00;99.90
15949;DHT22;14848;50.954;6.642;2023-02-01T00:36:14;6.00;99.90
15949;DHT22;14848;50.954;6.642;2023-02-01T00:38:40;6.10;99.90
15949;DHT22;14848;50.954;6.642;2023-02-01T00:41:26;6.10;99.90
15949;DHT22;14848;50.954;6.642;2023-02-01T00:43:51;6.20;99.90
15949;DHT22;14848;50.954;6.642;2023-02-01T00:46:18;6.20;99.90
15949;DHT22;14848;50.954;6.642;2023-02-01T00:48:44;6.20;99.90
15949;DHT22;14848;50.954;6.642;2023-02-01T00:51:15;6.20;99.90
15949;DHT22;14848;50.954;6.642;2023-02-01T00:53:42;6.20;99.90
15949;DHT22;14848;50.954;6.642;2023-02-01T00:56:08;6.00;99.90
15949;DHT22;14848;50.954;6.642;2023-02-01T00:58:34;6.20;99.90
15949;DHT22;14848;50.954;6.642;2023-02-01T01:01:16;6.20;99.90
15949;DHT22;14848;50.954;6.642;2023-02-01T01:03:44;6.20;99.90
15949;DHT22;14848;50.954;6.642;2023-02-01T01:06:13;6.20;99.90
15949;DHT22;14848;50.954;6.642;2023-02-01T01:08:40;6.20;99.90
15949;DHT22;14848;50.954;6.642;2023-02-01T01:11:14;6.20;99.90
15949;DHT22;14848;50.954;6.642;2023-02-01T01:13:41;7.40;99.90
15949;DHT22;14848;50.954;6.642;2023-02-01T01:16:08;6.20;99.90
15949;DHT22;14848;50.954;6.642;2023-02-01T01:18:35;6.20;99.90
15949;DHT22;14848;50.954;6.642;2023-02-01T01:21:01;6.20;99.90
15949;DHT22;14848;50.954;6.642;2023-02-01T01:23:27;6.20;99.90
15949;DHT22;14848;50.954;6.642;2023-02-01T01:25:53;6.10;99.90
15949;DHT22;14848;50.954;6.642;2023-02-01T01:28:19;6.10;99.90
15949;DHT22;14848;50.954;6.642;2023-02-01T01:30:44;6.10;99.90
15949;DHT22;14848;50.954;6.642;2023-02-01T01:33:10;6.00;99.90
15949;DHT22;14848;50.954;6.642;2023-02-01T01:35:36;5.90;99.90
15949;DHT22;14848;50.954;6.642;2023-02-01T01:38:01;5.90;99.90
15949;DHT22;14848;50.954;6.642;2023-02-01T01:40:28;5.90;99.90
15949;DHT22;14848;50.954;6.642;2023-02-01T01:42:54;5.90;99.90
15949;DHT22;14848;50.954;6.642;2023-02-01T01:45:34;5.90;99.90
15949;DHT22;14848;50.954;6.642;2023-02-01T01:48:13;5.80;99.90
15949;DHT22;14848;50.954;6.642;2023-02-01T01:50:55;5.70;99.90
15949;DHT22;14848;50.954;6.642;2023-02-01T01:53:35;5.80;99.90
15949;DHT22;14848;50.954;6.642;2023-02-01T01:56:02;5.90;99.90
15949;DHT22;14848;50.954;6.642;2023-02-01T01:58:32;5.80;99.90
15949;DHT22;14848;50.954;6.642;2023-02-01T02:00:58;5.90;99.90
15949;DHT22;14848;50.954;6.642;2023-02-01T02:03:37;5.90;99.90
15949;DHT22;14848;50.954;6.642;2023-02-01T02:06:12;6.20;99.90
15949;DHT22;14848;50.954;6.642;2023-02-01T02:08:40;6.00;99.90
15949;DHT22;14848;50.954;6.642;2023-02-01T02:11:06;6.00;99.90
15949;DHT22;14848;50.954;6.642;2023-02-01T02:13:40;6.10;99.90
15949;DHT22;14848;50.954;6.642;2023-02-01T02:33:39;6.40;99.90
15949;DHT22;14848;50.954;6.642;2023-02-01T02:42:01;6.50;99.90
15949;DHT22;14848;50.954;6.642;2023-02-01T02:45:00;6.50;99.90
15949;DHT22;14848;50.954;6.642;2023-02-01T02:48:17;6.50;99.90
15949;DHT22;14848;50.954;6.642;2023-02-01T02:56:41;6.50;99.90
15949;DHT22;14848;50.954;6.642;2023-02-01T02:59:28;6.40;99.90
15949;DHT22;14848;50.954;6.642;2023-02-01T03:02:13;6.40;99.90
15949;DHT22;14848;50.954;6.642;2023-02-01T03:04:58;6.40;99.90
15949;DHT22;14848;50.954;6.642;2023-02-01T03:08:16;6.40;99.90
15949;DHT22;14848;50.954;6.642;2023-02-01T03:13:25;6.50;99.90
15949;DHT22;14848;50.954;6.642;2023-02-01T03:15:59;6.70;99.90
15949;DHT22;14848;50.954;6.642;2023-02-01T03:18:41;6.50;99.90
15949;DHT22;14848;50.954;6.642;2023-02-01T03:21:17;6.60;99.90
15949;DHT22;14848;50.954;6.642;2023-02-01T03:23:47;7.70;99.90
15949;DHT22;14848;50.954;6.642;2023-02-01T03:26:15;6.60;99.90
15949;DHT22;14848;50.954;6.642;2023-02-01T03:28:48;6.60;99.90
15949;DHT22;14848;50.954;6.642;2023-02-01T03:31:15;6.60;99.90
15949;DHT22;14848;50.954;6.642;2023-02-01T03:33:41;6.50;99.90
15949;DHT22;14848;50.954;6.642;2023-02-01T03:36:17;6.70;99.90
15949;DHT22;14848;50.954;6.642;2023-02-01T03:41:33;6.40;99.90
15949;DHT22;14848;50.954;6.642;2023-02-01T03:47:04;6.20;99.90
15949;DHT22;14848;50.954;6.642;2023-02-01T03:49:36;6.20;99.90
15949;DHT22;14848;50.954;6.642;2023-02-01T03:52:06;6.20;99.90
15949;DHT22;14848;50.954;6.642;2023-02-01T03:54:33;6.10;99.90
15949;DHT22;14848;50.954;6.642;2023-02-01T03:57:05;6.10;99.90
15949;DHT22;14848;50.954;6.642;2023-02-01T03:59:32;6.10;99.90
15949;DHT22;14848;50.954;6.642;2023-02-01T04:01:58;6.20;99.90
15949;DHT22;14848;50.954;6.642;2023-02-01T04:04:24;6.20;99.90
15949;DHT22;14848;50.954;6.642;2023-02-01T04:06:50;6.20;99.90
15949;DHT22;14848;50.954;6.642;2023-02-01T04:09:16;6.20;99.90
15949;DHT22;14848;50.954;6.642;2023-02-01T04:11:42;6.20;99.90
15949;DHT22;14848;50.954;6.642;2023-02-01T04:14:09;6.20;99.90
15949;DHT22;14848;50.954;6.642;2023-02-01T04:16:35;6.20;99.90
15949;DHT22;14848;50.954;6.642;2023-02-01T04:19:01;6.20;99.90
15949;DHT22;14848;50.954;6.642;2023-02-01T04:21:27;6.20;99.90
15949;DHT22;14848;50.954;6.642;2023-02-01T04:23:53;6.20;99.90
15949;DHT22;14848;50.954;6.642;2023-02-01T04:26:19;6.20;99.90
15949;DHT22;14848;50.954;6.642;2023-02-01T04:28:45;6.20;99.90
15949;DHT22;14848;50.954;6.642;2023-02-01T04:31:14;6.20;99.90
15949;DHT22;14848;50.954;6.642;2023-02-01T04:33:39;6.20;99.90
15949;DHT22;14848;50.954;6.642;2023-02-01T04:36:05;6.60;99.90
15949;DHT22;14848;50.954;6.642;2023-02-01T04:38:31;6.10;99.90
15949;DHT22;14848;50.954;6.642;2023-02-01T04:40:58;6.00;99.90
15949;DHT22;14848;50.954;6.642;2023-02-01T04:43:24;6.00;99.90
15949;DHT22;14848;50.954;6.642;2023-02-01T04:45:50;5.90;99.90
15949;DHT22;14848;50.954;6.642;2023-02-01T04:48:18;5.90;99.90
15949;DHT22;14848;50.954;6.642;2023-02-01T04:50:45;5.90;99.90
15949;DHT22;14848;50.954;6.642;2023-02-01T04:53:17;5.90;99.90
15949;DHT22;14848;50.954;6.642;2023-02-01T04:55:43;6.00;99.90
15949;DHT22;14848;50.954;6.642;2023-02-01T04:58:09;5.90;99.90
15949;DHT22;14848;50.954;6.642;2023-02-01T05:00:36;5.90;99.90
15949;DHT22;14848;50.954;6.642;2023-02-01T05:03:02;5.90;99.90
15949;DHT22;14848;50.954;6.642;2023-02-01T05:05:28;5.90;99.90
15949;DHT22;14848;50.954;6.642;2023-02-01T05:07:54;5.90;99.90
15949;DHT22;14848;50.954;6.642;2023-02-01T05:10:20;5.90;99.90
15949;DHT22;14848;50.954;6.642;2023-02-01T05:12:45;5.90;99.90
15949;DHT22;14848;50.954;6.642;2023-02-01T05:15:30;6.00;99.90
15949;DHT22;14848;50.954;6.642;2023-02-01T05:17:56;5.50;99.90
15949;DHT22;14848;50.954;6.642;2023-02-01T05:30:06;5.70;99.90
15949;DHT22;14848;50.954;6.642;2023-02-01T05:32:32;5.60;99.90
15949;DHT22;14848;50.954;6.642;2023-02-01T05:34:58;5.70;99.90
15949;DHT22;14848;50.954;6.642;2023-02-01T05:39:50;5.70;99.90
15949;DHT22;14848;50.954;6.642;2023-02-01T05:44:42;5.90;99.90
15949;DHT22;14848;50.954;6.642;2023-02-01T05:49:34;5.80;99.90
15949;DHT22;14848;50.954;6.642;2023-02-01T05:52:00;5.70;99.90
15949;DHT22;14848;50.954;6.642;2023-02-01T05:54:25;5.50;99.90
15949;DHT22;14848;50.954;6.642;2023-02-01T05:56:51;5.30;99.90
15949;DHT22;14848;50.954;6.642;2023-02-01T06:01:43;5.40;99.90
15949;DHT22;14848;50.954;6.642;2023-02-01T06:09:02;5.40;99.90
15949;DHT22;14848;50.954;6.642;2023-02-01T06:11:28;5.50;99.90
15949;DHT22;14848;50.954;6.642;2023-02-01T06:21:13;5.40;99.90
15949;DHT22;14848;50.954;6.642;2023-02-01T06:23:52;5.60;99.90
15949;DHT22;14848;50.954;6.642;2023-02-01T06:26:18;5.40;99.90
15949;DHT22;14848;50.954;6.642;2023-02-01T06:28:44;5.40;99.90
15949;DHT22;14848;50.954;6.642;2023-02-01T06:31:10;5.50;99.90
15949;DHT22;14848;50.954;6.642;2023-02-01T06:36:05;5.40;99.90
15949;DHT22;14848;50.954;6.642;2023-02-01T06:38:32;5.30;99.90
15949;DHT22;14848;50.954;6.642;2023-02-01T06:41:00;5.60;99.90
15949;DHT22;14848;50.954;6.642;2023-02-01T07:05:24;5.40;99.90
15949;DHT22;14848;50.954;6.642;2023-02-01T07:07:49;5.40;99.90
15949;DHT22;14848;50.954;6.642;2023-02-01T07:10:16;5.40;99.90
15949;DHT22;14848;50.954;6.642;2023-02-01T07:12:41;5.50;99.90
15949;DHT22;14848;50.954;6.642;2023-02-01T07:15:07;5.50;99.90
15949;DHT22;14848;50.954;6.642;2023-02-01T07:17:33;5.50;99.90
15949;DHT22;14848;50.954;6.642;2023-02-01T07:19:59;5.50;99.90
15949;DHT22;14848;50.954;6.642;2023-02-01T07:22:25;5.50;99.90
15949;DHT22;14848;50.954;6.642;2023-02-01T07:24:51;5.50;99.90
15949;DHT22;14848;50.954;6.642;2023-02-01T07:27:17;5.60;99.90
15949;DHT22;14848;50.954;6.642;2023-02-01T07:29:43;5.60;99.90
15949;DHT22;14848;50.954;6.642;2023-02-01T07:32:08;5.50;99.90
15949;DHT22;14848;50.954;6.642;2023-02-01T07:34:34;5.50;99.90
15949;DHT22;14848;50.954;6.642;2023-02-01T07:37:00;5.50;99.90
15949;DHT22;14848;50.954;6.642;2023-02-01T07:39:26;5.50;99.90
15949;DHT22;14848;50.954;6.642;2023-02-01T07:41:53;5.50;99.90
15949;DHT22;14848;50.954;6.642;2023-02-01T07:44:19;5.50;99.90
15949;DHT22;14848;50.954;6.642;2023-02-01T07:56:32;5.60;99.90
15949;DHT22;14848;50.954;6.642;2023-02-01T07:58:58;5.70;99.90
15949;DHT22;14848;50.954;6.642;2023-02-01T08:01:27;5.70;99.90
15949;DHT22;14848;50.954;6.642;2023-02-01T08:04:00;5.80;99.90
15949;DHT22;14848;50.954;6.642;2023-02-01T08:06:27;5.80;99.90
15949;DHT22;14848;50.954;6.642;2023-02-01T08:08:53;5.80;99.90
15949;DHT22;14848;50.954;6.642;2023-02-01T08:11:20;5.80;99.90
15949;DHT22;14848;50.954;6.642;2023-02-01T08:13:46;5.80;99.90
15949;DHT22;14848;50.954;6.642;2023-02-01T08:16:13;5.80;99.90
15949;DHT22;14848;50.954;6.642;2023-02-01T08:18:39;5.80;99.90
15949;DHT22;14848;50.954;6.642;2023-02-01T08:21:06;5.80;99.90
15949;DHT22;14848;50.954;6.642;2023-02-01T08:23:33;5.80;99.90
15949;DHT22;14848;50.954;6.642;2023-02-01T08:26:09;5.80;99.90
15949;DHT22;14848;50.954;6.642;2023-02-01T08:28:35;5.90;99.90
15949;DHT22;14848;50.954;6.642;2023-02-01T08:31:10;5.50;99.90
15949;DHT22;14848;50.954;6.642;2023-02-01T08:33:36;5.90;99.90
15949;DHT22;14848;50.954;6.642;2023-02-01T08:36:06;5.90;99.90
15949;DHT22;14848;50.954;6.642;2023-02-01T08:38:32;5.90;99.90
15949;DHT22;14848;50.954;6.642;2023-02-01T08:40:57;6.00;99.90
15949;DHT22;14848;50.954;6.642;2023-02-01T08:43:23;6.10;99.90
15949;DHT22;14848;50.954;6.642;2023-02-01T08:45:50;6.10;99.90
15949;DHT22;14848;50.954;6.642;2023-02-01T08:48:19;6.20;99.90
15949;DHT22;14848;50.954;6.642;2023-02-01T08:50:44;6.20;99.90
15949;DHT22;14848;50.954;6.642;2023-02-01T08:53:10;6.20;99.90
15949;DHT22;14848;50.954;6.642;2023-02-01T08:55:39;6.30;99.90
15949;DHT22;14848;50.954;6.642;2023-02-01T08:58:04;6.50;99.90
15949;DHT22;14848;50.954;6.642;2023-02-01T09:00:30;6.50;99.90
15949;DHT22;14848;50.954;6.642;2023-02-01T09:02:56;6.40;99.90
15949;DHT22;14848;50.954;6.642;2023-02-01T09:05:21;6.40;99.90
15949;DHT22;14848;50.954;6.642;2023-02-01T09:07:48;6.50;99.90
15949;DHT22;14848;50.954;6.642;2023-02-01T09:10:14;6.60;99.90
15949;DHT22;14848;50.954;6.642;2023-02-01T09:12:39;6.70;99.90
15949;DHT22;14848;50.954;6.642;2023-02-01T09:15:05;6.70;99.90
15949;DHT22;14848;50.954;6.642;2023-02-01T09:17:32;6.80;99.90
15949;DHT22;14848;50.954;6.642;2023-02-01T09:19:58;6.70;99.90
15949;DHT22;14848;50.954;6.642;2023-02-01T09:22:24;6.70;99.90
15949;DHT22;14848;50.954;6.642;2023-02-01T09:24:49;6.60;99.90
15949;DHT22;14848;50.954;6.642;2023-02-01T09:27:15;6.60;99.90
15949;DHT22;14848;50.954;6.642;2023-02-01T09:29:41;6.60;99.90
15949;DHT22;14848;50.954;6.642;2023-02-01T09:32:06;6.60;99.90
15949;DHT22;14848;50.954;6.642;2023-02-01T09:34:33;6.70;99.90
15949;DHT22;14848;50.954;6.642;2023-02-01T09:36:59;6.70;99.90
15949;DHT22;14848;50.954;6.642;2023-02-01T09:39:25;6.70;99.90
15949;DHT22;14848;50.954;6.642;2023-02-01T09:47:30;6.80;99.90
15949;DHT22;14848;50.954;6.642;2023-02-01T09:50:01;7.00;99.90
15949;DHT22;14848;50.954;6.642;2023-02-01T09:52:45;7.00;99.90
15949;DHT22;14848;50.954;6.642;2023-02-01T09:55:18;7.00;99.90
15949;DHT22;14848;50.954;6.642;2023-02-01T09:58:16;6.90;99.90
15949;DHT22;14848;50.954;6.642;2023-02-01T10:00:52;6.90;99.90
15949;DHT22;14848;50.954;6.642;2023-02-01T10:03:18;7.00;99.90
15949;DHT22;14848;50.954;6.642;2023-02-01T10:09:17;7.00;99.90
15949;DHT22;14848;50.954;6.642;2023-02-01T10:20:01;7.10;99.90
15949;DHT22;14848;50.954;6.642;2023-02-01T10:25:23;7.00;99.90
15949;DHT22;14848;50.954;6.642;2023-02-01T10:27:51;7.00;99.90
15949;DHT22;14848;50.954;6.642;2023-02-01T10:30:25;7.10;99.90
15949;DHT22;14848;50.954;6.642;2023-02-01T10:33:22;7.00;99.90
15949;DHT22;14848;50.954;6.642;2023-02-01T11:05:48;7.60;99.90
15949;DHT22;14848;50.954;6.642;2023-02-01T11:08:16;7.50;99.90
15949;DHT22;14848;50.954;6.642;2023-02-01T11:10:44;7.60;99.90
15949;DHT22;14848;50.954;6.642;2023-02-01T11:13:18;7.60;99.90
15949;DHT22;14848;50.954;6.642;2023-02-01T11:15:54;7.60;99.90
15949;DHT22;14848;50.954;6.642;2023-02-01T11:18:27;7.50;99.90
15949;DHT22;14848;50.954;6.642;2023-02-01T11:20:53;7.60;99.90
15949;DHT22;14848;50.954;6.642;2023-02-01T11:23:24;7.70;99.90
15949;DHT22;14848;50.954;6.642;2023-02-01T11:25:54;7.70;99.90
15949;DHT22;14848;50.954;6.642;2023-02-01T11:28:26;7.80;99.90
15949;DHT22;14848;50.954;6.642;2023-02-01T11:30:55;7.80;99.90
15949;DHT22;14848;50.954;6.642;2023-02-01T11:33:26;8.00;99.90
15949;DHT22;14848;50.954;6.642;2023-02-01T11:35:56;7.80;99.90
15949;DHT22;14848;50.954;6.642;2023-02-01T11:38:31;8.00;99.90
15949;DHT22;14848;50.954;6.642;2023-02-01T11:41:24;8.10;99.90
15949;DHT22;14848;50.954;6.642;2023-02-01T11:43:59;8.10;99.90
15949;DHT22;14848;50.954;6.642;2023-02-01T11:46:31;8.00;99.90
15949;DHT22;14848;50.954;6.642;2023-02-01T11:49:19;8.10;99.90
15949;DHT22;14848;50.954;6.642;2023-02-01T12:00:10;8.20;99.90
15949;DHT22;14848;50.954;6.642;2023-02-01T12:08:23;8.20;99.90
15949;DHT22;14848;50.954;6.642;2023-02-01T12:16:47;8.10;99.90
15949;DHT22;14848;50.954;6.642;2023-02-01T12:19:26;8.20;99.90
15949;DHT22;14848;50.954;6.642;2023-02-01T12:24:57;8.20;99.90
15949;DHT22;14848;50.954;6.642;2023-02-01T12:44:40;8.30;99.90
15949;DHT22;14848;50.954;6.642;2023-02-01T12:50:01;8.30;99.90
15949;DHT22;14848;50.954;6.642;2023-02-01T12:52:49;8.20;99.90
15949;DHT22;14848;50.954;6.642;2023-02-01T13:00:36;8.00;99.90
15949;DHT22;14848;50.954;6.642;2023-02-01T13:11:20;8.00;99.90
15949;DHT22;14848;50.954;6.642;2023-02-01T13:14:33;6.90;99.90
15949;DHT22;14848;50.954;6.642;2023-02-01T13:16:43;8.00;99.90
15949;DHT22;14848;50.954;6.642;2023-02-01T13:19:37;8.00;99.90
15949;DHT22;14848;50.954;6.642;2023-02-01T13:22:35;8.00;99.90
15949;DHT22;14848;50.954;6.642;2023-02-01T13:25:03;8.10;99.90
15949;DHT22;14848;50.954;6.642;2023-02-01T13:27:37;8.10;99.90
15949;DHT22;14848;50.954;6.642;2023-02-01T13:30:20;8.00;99.90
15949;DHT22;14848;50.954;6.642;2023-02-01T13:35:50;8.00;99.90
15949;DHT22;14848;50.954;6.642;2023-02-01T13:38:39;8.00;99.90
15949;DHT22;14848;50.954;6.642;2023-02-01T13:44:04;8.00;99.90
15949;DHT22;14848;50.954;6.642;2023-02-01T13:46:41;8.10;99.90
15949;DHT22;14848;50.954;6.642;2023-02-01T13:49:24;8.10;99.90
15949;DHT22;14848;50.954;6.642;2023-02-01T13:51:55;8.10;99.90
15949;DHT22;14848;50.954;6.642;2023-02-01T13:56:52;8.20;99.90
15949;DHT22;14848;50.954;6.642;2023-02-01T14:05:03;8.30;99.90
15949;DHT22;14848;50.954;6.642;2023-02-01T14:07:29;8.10;99.90
15949;DHT22;14848;50.954;6.642;2023-02-01T14:09:55;8.30;99.90
15949;DHT22;14848;50.954;6.642;2023-02-01T14:12:47;8.40;99.90
15949;DHT22;14848;50.954;6.642;2023-02-01T14:15:25;8.40;99.90
15949;DHT22;14848;50.954;6.642;2023-02-01T14:17:51;8.30;99.90
15949;DHT22;14848;50.954;6.642;2023-02-01T14:20:40;8.40;99.90
15949;DHT22;14848;50.954;6.642;2023-02-01T14:23:15;8.40;99.90
15949;DHT22;14848;50.954;6.642;2023-02-01T14:25:42;8.40;99.90
15949;DHT22;14848;50.954;6.642;2023-02-01T14:28:28;8.40;99.90
15949;DHT22;14848;50.954;6.642;2023-02-01T14:30:57;8.40;99.90
15949;DHT22;14848;50.954;6.642;2023-02-01T14:33:25;8.40;99.90
15949;DHT22;14848;50.954;6.642;2023-02-01T14:36:12;8.40;99.90
15949;DHT22;14848;50.954;6.642;2023-02-01T14:38:39;8.40;99.90
15949;DHT22;14848;50.954;6.642;2023-02-01T14:41:29;8.40;99.90
15949;DHT22;14848;50.954;6.642;2023-02-01T14:47:03;8.40;99.90
15949;DHT22;14848;50.954;6.642;2023-02-01T14:50:35;8.40;99.90
15949;DHT22;14848;50.954;6.642;2023-02-01T14:52:42;8.40;99.90
15949;DHT22;14848;50.954;6.642;2023-02-01T14:55:16;8.40;99.90
15949;DHT22;14848;50.954;6.642;2023-02-01T14:57:48;8.40;99.90
15949;DHT22;14848;50.954;6.642;2023-02-01T15:00:20;8.50;99.90
15949;DHT22;14848;50.954;6.642;2023-02-01T15:02:46;8.40;99.90
15949;DHT22;14848;50.954;6.642;2023-02-01T15:07:52;8.60;99.90
15949;DHT22;14848;50.954;6.642;2023-02-01T15:10:19;8.30;99.90
15949;DHT22;14848;50.954;6.642;2023-02-01T15:15:22;8.50;99.90
15949;DHT22;14848;50.954;6.642;2023-02-01T15:17:57;8.40;99.90
15949;DHT22;14848;50.954;6.642;2023-02-01T15:20:28;8.40;99.90
15949;DHT22;14848;50.954;6.642;2023-02-01T15:25:28;8.20;99.90
15949;DHT22;14848;50.954;6.642;2023-02-01T15:30:24;8.40;99.90
15949;DHT22;14848;50.954;6.642;2023-02-01T15:32:52;8.40;99.90
15949;DHT22;14848;50.954;6.642;2023-02-01T15:46:55;8.20;99.90
15949;DHT22;14848;50.954;6.642;2023-02-01T15:49:35;8.30;99.90
15949;DHT22;14848;50.954;6.642;2023-02-01T15:52:03;8.40;99.90
15949;DHT22;14848;50.954;6.642;2023-02-01T15:54:32;8.30;99.90
15949;DHT22;14848;50.954;6.642;2023-02-01T15:57:02;8.20;99.90
15949;DHT22;14848;50.954;6.642;2023-02-01T15:59:35;8.60;99.90
15949;DHT22;14848;50.954;6.642;2023-02-01T16:02:02;8.40;99.90
15949;DHT22;14848;50.954;6.642;2023-02-01T16:04:29;7.90;99.90
15949;DHT22;14848;50.954;6.642;2023-02-01T16:06:58;7.80;99.90
15949;DHT22;14848;50.954;6.642;2023-02-01T16:09:40;7.70;99.90
15949;DHT22;14848;50.954;6.642;2023-02-01T16:12:32;7.40;99.90
15949;DHT22;14848;50.954;6.642;2023-02-01T16:15:00;7.70;99.90
15949;DHT22;14848;50.954;6.642;2023-02-01T16:17:26;7.50;99.90
15949;DHT22;14848;50.954;6.642;2023-02-01T16:19:52;7.50;99.90
15949;DHT22;14848;50.954;6.642;2023-02-01T16:34:28;7.00;99.90
15949;DHT22;14848;50.954;6.642;2023-02-01T16:44:15;7.10;99.90
15949;DHT22;14848;50.954;6.642;2023-02-01T16:46:44;7.10;99.90
15949;DHT22;14848;50.954;6.642;2023-02-01T16:49:23;6.70;99.90
15949;DHT22;14848;50.954;6.642;2023-02-01T16:51:51;7.10;99.90
15949;DHT22;14848;50.954;6.642;2023-02-01T16:59:12;7.10;99.90
15949;DHT22;14848;50.954;6.642;2023-02-01T17:01:40;7.20;99.90
15949;DHT22;14848;50.954;6.642;2023-02-01T17:04:08;7.00;99.90
15949;DHT22;14848;50.954;6.642;2023-02-01T17:06:35;7.40;99.90
15949;DHT22;14848;50.954;6.642;2023-02-01T17:09:02;7.40;99.90
15949;DHT22;14848;50.954;6.642;2023-02-01T17:13:56;7.20;99.90
15949;DHT22;14848;50.954;6.642;2023-02-01T17:16:27;7.40;99.90
15949;DHT22;14848;50.954;6.642;2023-02-01T17:19:03;7.30;99.90
15949;DHT22;14848;50.954;6.642;2023-02-01T17:21:40;7.30;99.90
15949;DHT22;14848;50.954;6.642;2023-02-01T17:24:06;7.30;99.90
15949;DHT22;14848;50.954;6.642;2023-02-01T17:26:32;7.30;99.90
15949;DHT22;14848;50.954;6.642;2023-02-01T17:33:50;7.40;99.90
15949;DHT22;14848;50.954;6.642;2023-02-01T17:36:16;7.20;99.90
15949;DHT22;14848;50.954;6.642;2023-02-01T17:38:43;7.30;99.90
15949;DHT22;14848;50.954;6.642;2023-02-01T17:41:10;7.20;99.90
15949;DHT22;14848;50.954;6.642;2023-02-01T17:43:36;7.40;99.90
15949;DHT22;14848;50.954;6.642;2023-02-01T17:46:15;7.30;99.90
15949;DHT22;14848;50.954;6.642;2023-02-01T17:48:41;7.30;99.90
15949;DHT22;14848;50.954;6.642;2023-02-01T17:51:16;7.30;99.90
15949;DHT22;14848;50.954;6.642;2023-02-01T17:56:13;7.90;99.90
15949;DHT22;14848;50.954;6.642;2023-02-01T17:58:39;7.50;99.90
15949;DHT22;14848;50.954;6.642;2023-02-01T18:01:05;7.10;99.90
15949;DHT22;14848;50.954;6.642;2023-02-01T18:03:31;7.40;99.90
15949;DHT22;14848;50.954;6.642;2023-02-01T18:05:58;7.20;99.90
15949;DHT22;14848;50.954;6.642;2023-02-01T18:08:28;7.50;99.90
15949;DHT22;14848;50.954;6.642;2023-02-01T18:10:56;7.40;99.90
15949;DHT22;14848;50.954;6.642;2023-02-01T18:13:29;7.50;99.90
15949;DHT22;14848;50.954;6.642;2023-02-01T18:15:56;7.30;99.90
15949;DHT22;14848;50.954;6.642;2023-02-01T18:18:26;7.40;99.90
15949;DHT22;14848;50.954;6.642;2023-02-01T18:20:55;7.30;99.90
15949;DHT22;14848;50.954;6.642;2023-02-01T18:23:22;7.60;99.90
15949;DHT22;14848;50.954;6.642;2023-02-01T18:25:50;7.40;99.90
15949;DHT22;14848;50.954;6.642;2023-02-01T18:28:17;7.40;99.90
15949;DHT22;14848;50.954;6.642;2023-02-01T18:30:46;7.40;99.90
15949;DHT22;14848;50.954;6.642;2023-02-01T18:33:14;7.50;99.90
15949;DHT22;14848;50.954;6.642;2023-02-01T18:38:07;7.50;99.90
15949;DHT22;14848;50.954;6.642;2023-02-01T18:40:48;7.60;99.90
15949;DHT22;14848;50.954;6.642;2023-02-01T18:45:42;7.50;99.90
15949;DHT22;14848;50.954;6.642;2023-02-01T18:48:15;7.60;99.90
15949;DHT22;14848;50.954;6.642;2023-02-01T18:50:43;7.60;99.90
15949;DHT22;14848;50.954;6.642;2023-02-01T18:53:18;7.50;99.90
15949;DHT22;14848;50.954;6.642;2023-02-01T18:55:47;7.50;99.90
15949;DHT22;14848;50.954;6.642;2023-02-01T18:58:14;7.50;99.90
15949;DHT22;14848;50.954;6.642;2023-02-01T19:00:41;7.40;99.90
15949;DHT22;14848;50.954;6.642;2023-02-01T19:05:33;7.80;99.90
15949;DHT22;14848;50.954;6.642;2023-02-01T19:07:59;7.50;99.90
15949;DHT22;14848;50.954;6.642;2023-02-01T19:10:25;7.50;99.90
15949;DHT22;14848;50.954;6.642;2023-02-01T19:12:52;7.90;99.90
15949;DHT22;14848;50.954;6.642;2023-02-01T19:15:20;7.80;99.90
15949;DHT22;14848;50.954;6.642;2023-02-01T19:17:48;5.80;99.90
15949;DHT22;14848;50.954;6.642;2023-02-01T19:20:19;7.70;99.90
15949;DHT22;14848;50.954;6.642;2023-02-01T19:22:46;7.90;99.90
15949;DHT22;14848;50.954;6.642;2023-02-01T19:25:14;8.20;99.90
15949;DHT22;14848;50.954;6.642;2023-02-01T19:27:41;7.80;99.90
15949;DHT22;14848;50.954;6.642;2023-02-01T19:30:07;7.50;99.90
15949;DHT22;14848;50.954;6.642;2023-02-01T19:32:33;7.60;99.90
15949;DHT22;14848;50.954;6.642;2023-02-01T19:34:59;7.50;99.90
15949;DHT22;14848;50.954;6.642;2023-02-01T19:37:24;7.80;99.90
15949;DHT22;14848;50.954;6.642;2023-02-01T19:39:50;8.10;99.90
15949;DHT22;14848;50.954;6.642;2023-02-01T19:42:16;7.70;99.90
15949;DHT22;14848;50.954;6.642;2023-02-01T19:44:42;7.80;99.90
15949;DHT22;14848;50.954;6.642;2023-02-01T19:47:08;7.70;99.90
15949;DHT22;14848;50.954;6.642;2023-02-01T19:52:00;7.90;99.90
15949;DHT22;14848;50.954;6.642;2023-02-01T19:54:26;7.80;99.90
15949;DHT22;14848;50.954;6.642;2023-02-01T19:56:52;7.70;99.90
15949;DHT22;14848;50.954;6.642;2023-02-01T20:01:45;7.60;99.90
15949;DHT22;14848;50.954;6.642;2023-02-01T20:04:14;7.70;99.90
15949;DHT22;14848;50.954;6.642;2023-02-01T20:06:41;7.60;99.90
15949;DHT22;14848;50.954;6.642;2023-02-01T20:09:12;7.50;99.90
15949;DHT22;14848;50.954;6.642;2023-02-01T20:16:30;7.70;99.90
15949;DHT22;14848;50.954;6.642;2023-02-01T20:18:55;7.50;99.90
15949;DHT22;14848;50.954;6.642;2023-02-01T20:23:50;7.60;99.90
15949;DHT22;14848;50.954;6.642;2023-02-01T20:26:16;7.70;99.90
15949;DHT22;14848;50.954;6.642;2023-02-01T20:31:12;7.80;99.90
15949;DHT22;14848;50.954;6.642;2023-02-01T20:36:06;7.60;99.90
15949;DHT22;14848;50.954;6.642;2023-02-01T20:38:32;7.50;99.90
15949;DHT22;14848;50.954;6.642;2023-02-01T20:41:06;7.70;99.90
15949;DHT22;14848;50.954;6.642;2023-02-01T20:43:32;7.70;99.90
15949;DHT22;14848;50.954;6.642;2023-02-01T20:48:24;7.40;99.90
15949;DHT22;14848;50.954;6.642;2023-02-01T20:50:57;7.80;99.90
15949;DHT22;14848;50.954;6.642;2023-02-01T20:53:23;7.80;99.90
15949;DHT22;14848;50.954;6.642;2023-02-01T20:55:56;7.80;99.90
15949;DHT22;14848;50.954;6.642;2023-02-01T20:58:23;8.00;99.90
15949;DHT22;14848;50.954;6.642;2023-02-01T21:00:49;8.00;99.90
15949;DHT22;14848;50.954;6.642;2023-02-01T21:03:15;7.90;99.90
15949;DHT22;14848;50.954;6.642;2023-02-01T21:05:47;7.80;99.90
15949;DHT22;14848;50.954;6.642;2023-02-01T21:08:13;7.60;99.90
15949;DHT22;14848;50.954;6.642;2023-02-01T21:10:39;7.90;99.90
15949;DHT22;14848;50.954;6.642;2023-02-01T21:13:06;7.80;99.90
15949;DHT22;14848;50.954;6.642;2023-02-01T21:15:33;7.70;99.90